sensor_id;sensor_type;location;lat;lon;timestamp;P1;durP1;ratioP1;P2;durP2;ratioP2
79592;SDS011;69074;45.164;9.704;2024-03-23T00:54:44;36.3;;;32.7;;
79592;SDS011;69074;45.164;9.704;2024-03-23T00:57:09;36.3;;;32.7;;
79592;SDS011;69074;45.164;9.704;2024-03-23T00:59:34;36.3;;;32.7;;
79592;SDS011;69074;45.164;9.704;2024-03-23T01:01:59;37.5;;;33.8;;
79592;SDS011;69074;45.164;9.704;2024-03-23T01:04:24;37.5;;;33.8;;
79592;SDS011;69074;45.164;9.704;2024-03-23T01:06:49;37.5;;;33.8;;
79592;SDS011;69074;45.164;9.704;2024-03-23T01:09:14;37.5;;;33.8;;
79592;SDS011;69074;45.164;9.704;2024-03-23T01:11:39;37.5;;;33.8;;
79592;SDS011;69074;45.164;9.704;2024-03-23T01:14:05;37.5;;;33.8;;
79592;SDS011;69074;45.164;9.704;2024-03-23T01:16:29;38.5;;;34.5;;
79592;SDS011;69074;45.164;9.704;2024-03-23T01:18:54;38.5;;;34.5;;
79592;SDS011;69074;45.164;9.704;2024-03-23T01:21:19;38.5;;;34.5;;
79592;SDS011;69074;45.164;9.704;2024-03-23T01:23:44;38.5;;;34.5;;
79592;SDS011;69074;45.164;9.704;2024-03-23T01:26:09;38.5;;;34.5;;
79592;SDS011;69074;45.164;9.704;2024-03-23T01:28:34;38.5;;;34.5;;
79592;SDS011;69074;45.164;9.704;2024-03-23T01:30:59;36.7;;;33.0;;
79592;SDS011;69074;45.164;9.704;2024-03-23T01:33:24;36.7;;;33.0;;
79592;SDS011;69074;45.164;9.704;2024-03-23T01:35:49;36.7;;;33.0;;
79592;SDS011;69074;45.164;9.704;2024-03-23T01:38:14;36.7;;;33.0;;
79592;SDS011;69074;45.164;9.704;2024-03-23T01:40:39;36.7;;;33.0;;
79592;SDS011;69074;45.164;9.704;2024-03-23T01:43:05;36.7;;;33.0;;
79592;SDS011;69074;45.164;9.704;2024-03-23T01:45:29;36.7;;;33.0;;
79592;SDS011;69074;45.164;9.704;2024-03-23T01:47:54;36.4;;;32.3;;
79592;SDS011;69074;45.164;9.704;2024-03-23T01:50:19;36.4;;;32.3;;
79592;SDS011;69074;45.164;9.704;2024-03-23T01:52:44;36.4;;;32.3;;
79592;SDS011;69074;45.164;9.704;2024-03-23T01:55:09;36.4;;;32.3;;
79592;SDS011;69074;45.164;9.704;2024-03-23T01:57:34;36.4;;;32.3;;
79592;SDS011;69074;45.164;9.704;2024-03-23T01:59:59;36.4;;;32.3;;
79592;SDS011;69074;45.164;9.704;2024-03-23T02:02:24;34.5;;;31.0;;
79592;SDS011;69074;45.164;9.704;2024-03-23T02:04:49;34.5;;;31.0;;
79592;SDS011;69074;45.164;9.704;2024-03-23T02:07:14;34.5;;;31.0;;
79592;SDS011;69074;45.164;9.704;2024-03-23T02:09:39;34.5;;;31.0;;
79592;SDS011;69074;45.164;9.704;2024-03-23T02:12:04;34.5;;;31.0;;
79592;SDS011;69074;45.164;9.704;2024-03-23T02:14:29;34.5;;;31.0;;
79592;SDS011;69074;45.164;9.704;2024-03-23T02:16:54;32.2;;;28.9;;
79592;SDS011;69074;45.164;9.704;2024-03-23T02:19:19;32.2;;;28.9;;
79592;SDS011;69074;45.164;9.704;2024-03-23T02:21:44;32.2;;;28.9;;
79592;SDS011;69074;45.164;9.704;2024-03-23T02:24:09;32.2;;;28.9;;
79592;SDS011;69074;45.164;9.704;2024-03-23T02:26:34;32.2;;;28.9;;
79592;SDS011;69074;45.164;9.704;2024-03-23T02:28:59;32.2;;;28.9;;
79592;SDS011;69074;45.164;9.704;2024-03-23T02:31:24;30.7;;;27.5;;
79592;SDS011;69074;45.164;9.704;2024-03-23T02:33:49;30.7;;;27.5;;
79592;SDS011;69074;45.164;9.704;2024-03-23T02:36:14;30.7;;;27.5;;
79592;SDS011;69074;45.164;9.704;2024-03-23T02:38:39;30.7;;;27.5;;
79592;SDS011;69074;45.164;9.704;2024-03-23T02:41:04;30.7;;;27.5;;
79592;SDS011;69074;45.164;9.704;2024-03-23T02:43:29;30.7;;;27.5;;
79592;SDS011;69074;45.164;9.704;2024-03-23T02:45:54;27.5;;;24.6;;
79592;SDS011;69074;45.164;9.704;2024-03-23T02:48:19;27.5;;;24.6;;
79592;SDS011;69074;45.164;9.704;2024-03-23T02:50:44;27.5;;;24.6;;
79592;SDS011;69074;45.164;9.704;2024-03-23T02:53:09;27.5;;;24.6;;
79592;SDS011;69074;45.164;9.704;2024-03-23T02:55:35;27.5;;;24.6;;
79592;SDS011;69074;45.164;9.704;2024-03-23T02:57:59;27.5;;;24.6;;
79592;SDS011;69074;45.164;9.704;2024-03-23T03:00:24;27.5;;;24.6;;
79592;SDS011;69074;45.164;9.704;2024-03-23T03:02:49;27.2;;;24.4;;
79592;SDS011;69074;45.164;9.704;2024-03-23T03:05:14;27.2;;;24.4;;
79592;SDS011;69074;45.164;9.704;2024-03-23T03:07:39;27.2;;;24.4;;
79592;SDS011;69074;45.164;9.704;2024-03-23T03:10:04;27.2;;;24.4;;
79592;SDS011;69074;45.164;9.704;2024-03-23T03:12:29;27.2;;;24.4;;
79592;SDS011;69074;45.164;9.704;2024-03-23T03:14:54;27.2;;;24.4;;
79592;SDS011;69074;45.164;9.704;2024-03-23T03:17:19;24.9;;;22.3;;
79592;SDS011;69074;45.164;9.704;2024-03-23T03:19:44;24.9;;;22.3;;
79592;SDS011;69074;45.164;9.704;2024-03-23T03:22:09;24.9;;;22.3;;
79592;SDS011;69074;45.164;9.704;2024-03-23T03:24:34;24.9;;;22.3;;
79592;SDS011;69074;45.164;9.704;2024-03-23T03:26:59;24.9;;;22.3;;
79592;SDS011;69074;45.164;9.704;2024-03-23T03:29:24;24.9;;;22.3;;
79592;SDS011;69074;45.164;9.704;2024-03-23T03:31:49;22.5;;;20.2;;
79592;SDS011;69074;45.164;9.704;2024-03-23T03:34:14;22.5;;;20.2;;
79592;SDS011;69074;45.164;9.704;2024-03-23T03:36:39;22.5;;;20.2;;
79592;SDS011;69074;45.164;9.704;2024-03-23T03:39:04;22.5;;;20.2;;
79592;SDS011;69074;45.164;9.704;2024-03-23T03:41:31;22.5;;;20.2;;
79592;SDS011;69074;45.164;9.704;2024-03-23T03:43:54;22.5;;;20.2;;
79592;SDS011;69074;45.164;9.704;2024-03-23T03:46:19;22.1;;;19.8;;
79592;SDS011;69074;45.164;9.704;2024-03-23T03:48:44;22.1;;;19.8;;
79592;SDS011;69074;45.164;9.704;2024-03-23T03:51:10;22.1;;;19.8;;
79592;SDS011;69074;45.164;9.704;2024-03-23T03:53:34;22.1;;;19.8;;
79592;SDS011;69074;45.164;9.704;2024-03-23T03:56:00;22.1;;;19.8;;
79592;SDS011;69074;45.164;9.704;2024-03-23T03:58:24;22.1;;;19.8;;
79592;SDS011;69074;45.164;9.704;2024-03-23T04:01:54;19.3;;;17.4;;
79592;SDS011;69074;45.164;9.704;2024-03-23T04:03:14;19.3;;;17.4;;
79592;SDS011;69074;45.164;9.704;2024-03-23T04:05:39;19.3;;;17.4;;
79592;SDS011;69074;45.164;9.704;2024-03-23T04:08:05;19.3;;;17.4;;
79592;SDS011;69074;45.164;9.704;2024-03-23T04:10:29;19.3;;;17.4;;
79592;SDS011;69074;45.164;9.704;2024-03-23T04:12:54;19.3;;;17.4;;
79592;SDS011;69074;45.164;9.704;2024-03-23T04:15:19;19.3;;;17.4;;
79592;SDS011;69074;45.164;9.704;2024-03-23T04:17:44;18.6;;;16.6;;
79592;SDS011;69074;45.164;9.704;2024-03-23T04:20:10;18.6;;;16.6;;
79592;SDS011;69074;45.164;9.704;2024-03-23T04:22:34;18.6;;;16.6;;
79592;SDS011;69074;45.164;9.704;2024-03-23T04:24:59;18.6;;;16.6;;
79592;SDS011;69074;45.164;9.704;2024-03-23T04:27:24;18.6;;;16.6;;
79592;SDS011;69074;45.164;9.704;2024-03-23T04:29:49;18.6;;;16.6;;
79592;SDS011;69074;45.164;9.704;2024-03-23T04:32:14;18.4;;;16.4;;
79592;SDS011;69074;45.164;9.704;2024-03-23T04:34:39;18.4;;;16.4;;
79592;SDS011;69074;45.164;9.704;2024-03-23T04:37:04;18.4;;;16.4;;
79592;SDS011;69074;45.164;9.704;2024-03-23T04:39:29;18.4;;;16.4;;
79592;SDS011;69074;45.164;9.704;2024-03-23T04:41:54;18.4;;;16.4;;
79592;SDS011;69074;45.164;9.704;2024-03-23T04:44:19;18.4;;;16.4;;
79592;SDS011;69074;45.164;9.704;2024-03-23T04:46:44;20.2;;;15.9;;
79592;SDS011;69074;45.164;9.704;2024-03-23T04:49:09;20.2;;;15.9;;
79592;SDS011;69074;45.164;9.704;2024-03-23T04:51:35;20.2;;;15.9;;
79592;SDS011;69074;45.164;9.704;2024-03-23T04:53:59;20.2;;;15.9;;
79592;SDS011;69074;45.164;9.704;2024-03-23T04:56:24;20.2;;;15.9;;
79592;SDS011;69074;45.164;9.704;2024-03-23T04:58:49;20.2;;;15.9;;
79592;SDS011;69074;45.164;9.704;2024-03-23T05:01:14;18.0;;;15.9;;
79592;SDS011;69074;45.164;9.704;2024-03-23T05:03:39;18.0;;;15.9;;
79592;SDS011;69074;45.164;9.704;2024-03-23T05:06:04;18.0;;;15.9;;
79592;SDS011;69074;45.164;9.704;2024-03-23T05:08:29;18.0;;;15.9;;
79592;SDS011;69074;45.164;9.704;2024-03-23T05:10:54;18.0;;;15.9;;
79592;SDS011;69074;45.164;9.704;2024-03-23T05:13:19;18.0;;;15.9;;
79592;SDS011;69074;45.164;9.704;2024-03-23T05:15:50;21.3;;;15.9;;
79592;SDS011;69074;45.164;9.704;2024-03-23T05:18:09;21.3;;;15.9;;
79592;SDS011;69074;45.164;9.704;2024-03-23T05:20:34;21.3;;;15.9;;
79592;SDS011;69074;45.164;9.704;2024-03-23T05:22:59;21.3;;;15.9;;
79592;SDS011;69074;45.164;9.704;2024-03-23T05:25:24;21.3;;;15.9;;
79592;SDS011;69074;45.164;9.704;2024-03-23T05:27:49;21.3;;;15.9;;
79592;SDS011;69074;45.164;9.704;2024-03-23T05:30:14;21.3;;;15.9;;
79592;SDS011;69074;45.164;9.704;2024-03-23T05:32:39;19.1;;;16.3;;
79592;SDS011;69074;45.164;9.704;2024-03-23T05:35:04;19.1;;;16.3;;
79592;SDS011;69074;45.164;9.704;2024-03-23T05:37:29;19.1;;;16.3;;
79592;SDS011;69074;45.164;9.704;2024-03-23T05:39:54;19.1;;;16.3;;
79592;SDS011;69074;45.164;9.704;2024-03-23T05:42:19;19.1;;;16.3;;
79592;SDS011;69074;45.164;9.704;2024-03-23T05:44:44;19.1;;;16.3;;
79592;SDS011;69074;45.164;9.704;2024-03-23T05:47:09;23.9;;;19.2;;
79592;SDS011;69074;45.164;9.704;2024-03-23T05:49:34;23.9;;;19.2;;
79592;SDS011;69074;45.164;9.704;2024-03-23T05:51:59;23.9;;;19.2;;
79592;SDS011;69074;45.164;9.704;2024-03-23T05:54:24;23.9;;;19.2;;
79592;SDS011;69074;45.164;9.704;2024-03-23T05:56:49;23.9;;;19.2;;
79592;SDS011;69074;45.164;9.704;2024-03-23T05:59:14;23.9;;;19.2;;
79592;SDS011;69074;45.164;9.704;2024-03-23T06:01:39;26.4;;;19.1;;
79592;SDS011;69074;45.164;9.704;2024-03-23T06:04:04;26.4;;;19.1;;
79592;SDS011;69074;45.164;9.704;2024-03-23T06:06:29;26.4;;;19.1;;
79592;SDS011;69074;45.164;9.704;2024-03-23T06:08:54;26.4;;;19.1;;
79592;SDS011;69074;45.164;9.704;2024-03-23T06:11:19;26.4;;;19.1;;
79592;SDS011;69074;45.164;9.704;2024-03-23T06:13:44;26.4;;;19.1;;
79592;SDS011;69074;45.164;9.704;2024-03-23T06:16:09;24.0;;;17.8;;
79592;SDS011;69074;45.164;9.704;2024-03-23T06:18:34;24.0;;;17.8;;
79592;SDS011;69074;45.164;9.704;2024-03-23T06:20:59;24.0;;;17.8;;
79592;SDS011;69074;45.164;9.704;2024-03-23T06:23:24;24.0;;;17.8;;
79592;SDS011;69074;45.164;9.704;2024-03-23T06:25:49;24.0;;;17.8;;
79592;SDS011;69074;45.164;9.704;2024-03-23T06:28:14;24.0;;;17.8;;
79592;SDS011;69074;45.164;9.704;2024-03-23T06:30:39;19.4;;;15.0;;
79592;SDS011;69074;45.164;9.704;2024-03-23T06:33:04;19.4;;;15.0;;
79592;SDS011;69074;45.164;9.704;2024-03-23T06:35:29;19.4;;;15.0;;
79592;SDS011;69074;45.164;9.704;2024-03-23T06:37:54;19.4;;;15.0;;
79592;SDS011;69074;45.164;9.704;2024-03-23T06:40:19;19.4;;;15.0;;
79592;SDS011;69074;45.164;9.704;2024-03-23T06:42:44;19.4;;;15.0;;
79592;SDS011;69074;45.164;9.704;2024-03-23T06:45:09;19.4;;;15.0;;
79592;SDS011;69074;45.164;9.704;2024-03-23T06:47:35;16.5;;;13.2;;
79592;SDS011;69074;45.164;9.704;2024-03-23T06:50:00;16.5;;;13.2;;
79592;SDS011;69074;45.164;9.704;2024-03-23T06:52:24;16.5;;;13.2;;
79592;SDS011;69074;45.164;9.704;2024-03-23T06:54:49;16.5;;;13.2;;
79592;SDS011;69074;45.164;9.704;2024-03-23T06:57:14;16.5;;;13.2;;
79592;SDS011;69074;45.164;9.704;2024-03-23T06:59:39;16.5;;;13.2;;
79592;SDS011;69074;45.164;9.704;2024-03-23T07:02:05;13.5;;;11.1;;
79592;SDS011;69074;45.164;9.704;2024-03-23T07:04:29;13.5;;;11.1;;
79592;SDS011;69074;45.164;9.704;2024-03-23T07:06:54;13.5;;;11.1;;
79592;SDS011;69074;45.164;9.704;2024-03-23T07:09:19;13.5;;;11.1;;
79592;SDS011;69074;45.164;9.704;2024-03-23T07:11:44;13.5;;;11.1;;
79592;SDS011;69074;45.164;9.704;2024-03-23T07:14:09;13.5;;;11.1;;
79592;SDS011;69074;45.164;9.704;2024-03-23T07:16:34;12.8;;;10.0;;
79592;SDS011;69074;45.164;9.704;2024-03-23T07:18:59;12.8;;;10.0;;
79592;SDS011;69074;45.164;9.704;2024-03-23T07:21:24;12.8;;;10.0;;
79592;SDS011;69074;45.164;9.704;2024-03-23T07:23:49;12.8;;;10.0;;
79592;SDS011;69074;45.164;9.704;2024-03-23T07:26:14;12.8;;;10.0;;
79592;SDS011;69074;45.164;9.704;2024-03-23T07:28:39;12.8;;;10.0;;
79592;SDS011;69074;45.164;9.704;2024-03-23T07:31:05;11.6;;;9.7;;
79592;SDS011;69074;45.164;9.704;2024-03-23T07:33:30;11.6;;;9.7;;
79592;SDS011;69074;45.164;9.704;2024-03-23T07:35:54;11.6;;;9.7;;
79592;SDS011;69074;45.164;9.704;2024-03-23T07:38:19;11.6;;;9.7;;
79592;SDS011;69074;45.164;9.704;2024-03-23T07:40:44;11.6;;;9.7;;
79592;SDS011;69074;45.164;9.704;2024-03-23T07:43:09;11.6;;;9.7;;
79592;SDS011;69074;45.164;9.704;2024-03-23T07:45:35;11.6;;;9.7;;
79592;SDS011;69074;45.164;9.704;2024-03-23T07:47:59;10.9;;;9.5;;
79592;SDS011;69074;45.164;9.704;2024-03-23T07:50:24;10.9;;;9.5;;
79592;SDS011;69074;45.164;9.704;2024-03-23T07:52:49;10.9;;;9.5;;
79592;SDS011;69074;45.164;9.704;2024-03-23T07:55:15;10.9;;;9.5;;
79592;SDS011;69074;45.164;9.704;2024-03-23T07:57:39;10.9;;;9.5;;
79592;SDS011;69074;45.164;9.704;2024-03-23T08:00:05;10.9;;;9.5;;
79592;SDS011;69074;45.164;9.704;2024-03-23T08:02:30;11.2;;;9.0;;
79592;SDS011;69074;45.164;9.704;2024-03-23T08:04:55;11.2;;;9.0;;
79592;SDS011;69074;45.164;9.704;2024-03-23T08:07:20;11.2;;;9.0;;
79592;SDS011;69074;45.164;9.704;2024-03-23T08:09:45;11.2;;;9.0;;
79592;SDS011;69074;45.164;9.704;2024-03-23T08:12:10;11.2;;;9.0;;
79592;SDS011;69074;45.164;9.704;2024-03-23T08:14:35;11.2;;;9.0;;
79592;SDS011;69074;45.164;9.704;2024-03-23T08:17:00;11.2;;;9.0;;
79592;SDS011;69074;45.164;9.704;2024-03-23T08:19:25;11.2;;;9.0;;
79592;SDS011;69074;45.164;9.704;2024-03-23T08:21:50;11.2;;;9.0;;
79592;SDS011;69074;45.164;9.704;2024-03-23T08:24:15;11.2;;;9.0;;
79592;SDS011;69074;45.164;9.704;2024-03-23T08:26:40;11.2;;;9.0;;
79592;SDS011;69074;45.164;9.704;2024-03-23T08:29:05;11.2;;;9.0;;
79592;SDS011;69074;45.164;9.704;2024-03-23T08:31:30;10.9;;;8.8;;
79592;SDS011;69074;45.164;9.704;2024-03-23T08:33:55;10.9;;;8.8;;
79592;SDS011;69074;45.164;9.704;2024-03-23T08:36:20;10.9;;;8.8;;
79592;SDS011;69074;45.164;9.704;2024-03-23T08:38:45;10.9;;;8.8;;
79592;SDS011;69074;45.164;9.704;2024-03-23T08:41:11;10.9;;;8.8;;
79592;SDS011;69074;45.164;9.704;2024-03-23T08:43:35;10.9;;;8.8;;
79592;SDS011;69074;45.164;9.704;2024-03-23T08:46:03;16.5;;;13.5;;
79592;SDS011;69074;45.164;9.704;2024-03-23T08:48:25;16.5;;;13.5;;
79592;SDS011;69074;45.164;9.704;2024-03-23T08:50:57;16.5;;;13.5;;
79592;SDS011;69074;45.164;9.704;2024-03-23T08:53:15;16.5;;;13.5;;
79592;SDS011;69074;45.164;9.704;2024-03-23T08:55:40;16.5;;;13.5;;
79592;SDS011;69074;45.164;9.704;2024-03-23T08:58:05;16.5;;;13.5;;
79592;SDS011;69074;45.164;9.704;2024-03-23T09:00:30;16.5;;;13.5;;
79592;SDS011;69074;45.164;9.704;2024-03-23T09:02:55;17.2;;;15.3;;
79592;SDS011;69074;45.164;9.704;2024-03-23T09:05:20;17.2;;;15.3;;
79592;SDS011;69074;45.164;9.704;2024-03-23T09:07:45;17.2;;;15.3;;
79592;SDS011;69074;45.164;9.704;2024-03-23T09:10:10;17.2;;;15.3;;
79592;SDS011;69074;45.164;9.704;2024-03-23T09:12:35;17.2;;;15.3;;
79592;SDS011;69074;45.164;9.704;2024-03-23T09:15:00;17.2;;;15.3;;
79592;SDS011;69074;45.164;9.704;2024-03-23T09:17:25;17.4;;;15.4;;
79592;SDS011;69074;45.164;9.704;2024-03-23T09:19:50;17.4;;;15.4;;
79592;SDS011;69074;45.164;9.704;2024-03-23T09:22:15;17.4;;;15.4;;
79592;SDS011;69074;45.164;9.704;2024-03-23T09:24:40;17.4;;;15.4;;
79592;SDS011;69074;45.164;9.704;2024-03-23T09:27:05;17.4;;;15.4;;
79592;SDS011;69074;45.164;9.704;2024-03-23T09:29:30;17.4;;;15.4;;
79592;SDS011;69074;45.164;9.704;2024-03-23T09:31:55;17.6;;;15.8;;
79592;SDS011;69074;45.164;9.704;2024-03-23T09:34:20;17.6;;;15.8;;
79592;SDS011;69074;45.164;9.704;2024-03-23T09:36:46;17.6;;;15.8;;
79592;SDS011;69074;45.164;9.704;2024-03-23T09:39:10;17.6;;;15.8;;
79592;SDS011;69074;45.164;9.704;2024-03-23T09:41:35;17.6;;;15.8;;
79592;SDS011;69074;45.164;9.704;2024-03-23T09:44:00;17.6;;;15.8;;
79592;SDS011;69074;45.164;9.704;2024-03-23T09:46:25;20.0;;;17.2;;
79592;SDS011;69074;45.164;9.704;2024-03-23T09:48:50;20.0;;;17.2;;
79592;SDS011;69074;45.164;9.704;2024-03-23T09:51:15;20.0;;;17.2;;
79592;SDS011;69074;45.164;9.704;2024-03-23T09:53:40;20.0;;;17.2;;
79592;SDS011;69074;45.164;9.704;2024-03-23T09:56:05;20.0;;;17.2;;
79592;SDS011;69074;45.164;9.704;2024-03-23T09:58:30;20.0;;;17.2;;
79592;SDS011;69074;45.164;9.704;2024-03-23T10:00:55;30.4;;;26.1;;
79592;SDS011;69074;45.164;9.704;2024-03-23T10:03:20;30.4;;;26.1;;
79592;SDS011;69074;45.164;9.704;2024-03-23T10:05:45;30.4;;;26.1;;
79592;SDS011;69074;45.164;9.704;2024-03-23T10:08:17;30.4;;;26.1;;
79592;SDS011;69074;45.164;9.704;2024-03-23T10:10:35;30.4;;;26.1;;
79592;SDS011;69074;45.164;9.704;2024-03-23T10:13:00;30.4;;;26.1;;
79592;SDS011;69074;45.164;9.704;2024-03-23T10:15:25;30.4;;;26.1;;
79592;SDS011;69074;45.164;9.704;2024-03-23T10:17:50;40.4;;;33.7;;
79592;SDS011;69074;45.164;9.704;2024-03-23T10:20:18;40.4;;;33.7;;
79592;SDS011;69074;45.164;9.704;2024-03-23T10:22:40;40.4;;;33.7;;
79592;SDS011;69074;45.164;9.704;2024-03-23T10:25:07;40.4;;;33.7;;
79592;SDS011;69074;45.164;9.704;2024-03-23T10:27:30;40.4;;;33.7;;
79592;SDS011;69074;45.164;9.704;2024-03-23T10:29:55;40.4;;;33.7;;
79592;SDS011;69074;45.164;9.704;2024-03-23T10:32:20;47.5;;;38.4;;
79592;SDS011;69074;45.164;9.704;2024-03-23T10:34:45;47.5;;;38.4;;
79592;SDS011;69074;45.164;9.704;2024-03-23T10:37:10;47.5;;;38.4;;
79592;SDS011;69074;45.164;9.704;2024-03-23T10:39:35;47.5;;;38.4;;
79592;SDS011;69074;45.164;9.704;2024-03-23T10:42:01;47.5;;;38.4;;
79592;SDS011;69074;45.164;9.704;2024-03-23T10:44:25;47.5;;;38.4;;
79592;SDS011;69074;45.164;9.704;2024-03-23T10:46:50;47.1;;;37.3;;
79592;SDS011;69074;45.164;9.704;2024-03-23T10:49:15;47.1;;;37.3;;
79592;SDS011;69074;45.164;9.704;2024-03-23T10:51:40;47.1;;;37.3;;
79592;SDS011;69074;45.164;9.704;2024-03-23T10:54:05;47.1;;;37.3;;
79592;SDS011;69074;45.164;9.704;2024-03-23T10:56:30;47.1;;;37.3;;
79592;SDS011;69074;45.164;9.704;2024-03-23T10:58:55;47.1;;;37.3;;
79592;SDS011;69074;45.164;9.704;2024-03-23T11:01:20;37.2;;;30.6;;
79592;SDS011;69074;45.164;9.704;2024-03-23T11:03:46;37.2;;;30.6;;
79592;SDS011;69074;45.164;9.704;2024-03-23T11:06:10;37.2;;;30.6;;
79592;SDS011;69074;45.164;9.704;2024-03-23T11:08:36;37.2;;;30.6;;
79592;SDS011;69074;45.164;9.704;2024-03-23T11:11:32;37.2;;;30.6;;
79592;SDS011;69074;45.164;9.704;2024-03-23T11:13:25;37.2;;;30.6;;
79592;SDS011;69074;45.164;9.704;2024-03-23T11:15:50;32.3;;;26.5;;
79592;SDS011;69074;45.164;9.704;2024-03-23T11:18:20;32.3;;;26.5;;
79592;SDS011;69074;45.164;9.704;2024-03-23T11:20:40;32.3;;;26.5;;
79592;SDS011;69074;45.164;9.704;2024-03-23T11:23:05;32.3;;;26.5;;
79592;SDS011;69074;45.164;9.704;2024-03-23T11:25:30;32.3;;;26.5;;
79592;SDS011;69074;45.164;9.704;2024-03-23T11:27:55;32.3;;;26.5;;
79592;SDS011;69074;45.164;9.704;2024-03-23T11:30:21;32.3;;;26.5;;
79592;SDS011;69074;45.164;9.704;2024-03-23T11:32:46;185.9;;;119.0;;
79592;SDS011;69074;45.164;9.704;2024-03-23T11:35:10;185.9;;;119.0;;
79592;SDS011;69074;45.164;9.704;2024-03-23T11:37:36;185.9;;;119.0;;
79592;SDS011;69074;45.164;9.704;2024-03-23T11:40:00;185.9;;;119.0;;
79592;SDS011;69074;45.164;9.704;2024-03-23T11:42:25;185.9;;;119.0;;
79592;SDS011;69074;45.164;9.704;2024-03-23T11:44:50;185.9;;;119.0;;
79592;SDS011;69074;45.164;9.704;2024-03-23T11:47:15;91.2;;;59.6;;
79592;SDS011;69074;45.164;9.704;2024-03-23T11:49:40;91.2;;;59.6;;
79592;SDS011;69074;45.164;9.704;2024-03-23T11:52:05;91.2;;;59.6;;
79592;SDS011;69074;45.164;9.704;2024-03-23T11:54:30;91.2;;;59.6;;
79592;SDS011;69074;45.164;9.704;2024-03-23T11:56:56;91.2;;;59.6;;
79592;SDS011;69074;45.164;9.704;2024-03-23T11:59:30;91.2;;;59.6;;
79592;SDS011;69074;45.164;9.704;2024-03-23T12:01:45;105.3;;;75.1;;
79592;SDS011;69074;45.164;9.704;2024-03-23T12:04:10;105.3;;;75.1;;
79592;SDS011;69074;45.164;9.704;2024-03-23T12:06:35;105.3;;;75.1;;
79592;SDS011;69074;45.164;9.704;2024-03-23T12:09:05;105.3;;;75.1;;
79592;SDS011;69074;45.164;9.704;2024-03-23T12:11:25;105.3;;;75.1;;
79592;SDS011;69074;45.164;9.704;2024-03-23T12:13:50;105.3;;;75.1;;
79592;SDS011;69074;45.164;9.704;2024-03-23T12:16:16;86.9;;;56.8;;
79592;SDS011;69074;45.164;9.704;2024-03-23T12:18:41;86.9;;;56.8;;
79592;SDS011;69074;45.164;9.704;2024-03-23T12:21:05;86.9;;;56.8;;
79592;SDS011;69074;45.164;9.704;2024-03-23T12:23:30;86.9;;;56.8;;
79592;SDS011;69074;45.164;9.704;2024-03-23T12:25:55;86.9;;;56.8;;
79592;SDS011;69074;45.164;9.704;2024-03-23T12:28:20;86.9;;;56.8;;
79592;SDS011;69074;45.164;9.704;2024-03-23T12:30:45;70.0;;;48.5;;
79592;SDS011;69074;45.164;9.704;2024-03-23T12:33:10;70.0;;;48.5;;
79592;SDS011;69074;45.164;9.704;2024-03-23T12:35:35;70.0;;;48.5;;
79592;SDS011;69074;45.164;9.704;2024-03-23T12:38:00;70.0;;;48.5;;
79592;SDS011;69074;45.164;9.704;2024-03-23T12:40:26;70.0;;;48.5;;
79592;SDS011;69074;45.164;9.704;2024-03-23T12:42:50;70.0;;;48.5;;
79592;SDS011;69074;45.164;9.704;2024-03-23T12:45:15;70.0;;;48.5;;
79592;SDS011;69074;45.164;9.704;2024-03-23T12:47:40;56.1;;;39.9;;
79592;SDS011;69074;45.164;9.704;2024-03-23T12:50:06;56.1;;;39.9;;
79592;SDS011;69074;45.164;9.704;2024-03-23T12:52:30;56.1;;;39.9;;
79592;SDS011;69074;45.164;9.704;2024-03-23T12:54:55;56.1;;;39.9;;
79592;SDS011;69074;45.164;9.704;2024-03-23T12:57:20;56.1;;;39.9;;
79592;SDS011;69074;45.164;9.704;2024-03-23T12:59:45;56.1;;;39.9;;
79592;SDS011;69074;45.164;9.704;2024-03-23T13:02:10;70.1;;;48.7;;
79592;SDS011;69074;45.164;9.704;2024-03-23T13:04:35;70.1;;;48.7;;
79592;SDS011;69074;45.164;9.704;2024-03-23T13:07:00;70.1;;;48.7;;
79592;SDS011;69074;45.164;9.704;2024-03-23T13:09:25;70.1;;;48.7;;
79592;SDS011;69074;45.164;9.704;2024-03-23T13:11:50;70.1;;;48.7;;
79592;SDS011;69074;45.164;9.704;2024-03-23T13:14:15;70.1;;;48.7;;
79592;SDS011;69074;45.164;9.704;2024-03-23T13:16:40;56.3;;;39.5;;
79592;SDS011;69074;45.164;9.704;2024-03-23T13:19:05;56.3;;;39.5;;
79592;SDS011;69074;45.164;9.704;2024-03-23T13:21:30;56.3;;;39.5;;
79592;SDS011;69074;45.164;9.704;2024-03-23T13:23:55;56.3;;;39.5;;
79592;SDS011;69074;45.164;9.704;2024-03-23T13:26:20;56.3;;;39.5;;
79592;SDS011;69074;45.164;9.704;2024-03-23T13:28:45;56.3;;;39.5;;
79592;SDS011;69074;45.164;9.704;2024-03-23T13:31:10;47.3;;;35.5;;
79592;SDS011;69074;45.164;9.704;2024-03-23T13:33:35;47.3;;;35.5;;
79592;SDS011;69074;45.164;9.704;2024-03-23T13:36:00;47.3;;;35.5;;
79592;SDS011;69074;45.164;9.704;2024-03-23T13:38:25;47.3;;;35.5;;
79592;SDS011;69074;45.164;9.704;2024-03-23T13:40:52;47.3;;;35.5;;
79592;SDS011;69074;45.164;9.704;2024-03-23T13:43:15;47.3;;;35.5;;
79592;SDS011;69074;45.164;9.704;2024-03-23T13:45:41;62.3;;;49.6;;
79592;SDS011;69074;45.164;9.704;2024-03-23T13:48:06;62.3;;;49.6;;
79592;SDS011;69074;45.164;9.704;2024-03-23T13:50:30;62.3;;;49.6;;
79592;SDS011;69074;45.164;9.704;2024-03-23T13:52:55;62.3;;;49.6;;
79592;SDS011;69074;45.164;9.704;2024-03-23T13:55:20;62.3;;;49.6;;
79592;SDS011;69074;45.164;9.704;2024-03-23T13:57:46;62.3;;;49.6;;
79592;SDS011;69074;45.164;9.704;2024-03-23T14:00:11;62.3;;;49.6;;
79592;SDS011;69074;45.164;9.704;2024-03-23T14:02:35;46.0;;;36.8;;
79592;SDS011;69074;45.164;9.704;2024-03-23T14:05:01;46.0;;;36.8;;
79592;SDS011;69074;45.164;9.704;2024-03-23T14:07:26;46.0;;;36.8;;
79592;SDS011;69074;45.164;9.704;2024-03-23T14:09:51;46.0;;;36.8;;
79592;SDS011;69074;45.164;9.704;2024-03-23T14:12:16;46.0;;;36.8;;
79592;SDS011;69074;45.164;9.704;2024-03-23T14:14:41;46.0;;;36.8;;
79592;SDS011;69074;45.164;9.704;2024-03-23T14:17:06;44.7;;;32.5;;
79592;SDS011;69074;45.164;9.704;2024-03-23T14:19:31;44.7;;;32.5;;
79592;SDS011;69074;45.164;9.704;2024-03-23T14:21:56;44.7;;;32.5;;
79592;SDS011;69074;45.164;9.704;2024-03-23T14:24:21;44.7;;;32.5;;
79592;SDS011;69074;45.164;9.704;2024-03-23T14:26:46;44.7;;;32.5;;
79592;SDS011;69074;45.164;9.704;2024-03-23T14:29:11;44.7;;;32.5;;
79592;SDS011;69074;45.164;9.704;2024-03-23T14:31:36;33.1;;;26.5;;
79592;SDS011;69074;45.164;9.704;2024-03-23T14:34:01;33.1;;;26.5;;
79592;SDS011;69074;45.164;9.704;2024-03-23T14:36:26;33.1;;;26.5;;
79592;SDS011;69074;45.164;9.704;2024-03-23T14:38:51;33.1;;;26.5;;
79592;SDS011;69074;45.164;9.704;2024-03-23T14:41:16;33.1;;;26.5;;
79592;SDS011;69074;45.164;9.704;2024-03-23T14:43:41;33.1;;;26.5;;
79592;SDS011;69074;45.164;9.704;2024-03-23T14:46:06;65.0;;;30.2;;
79592;SDS011;69074;45.164;9.704;2024-03-23T14:48:31;65.0;;;30.2;;
79592;SDS011;69074;45.164;9.704;2024-03-23T14:50:56;65.0;;;30.2;;
79592;SDS011;69074;45.164;9.704;2024-03-23T14:53:21;65.0;;;30.2;;
79592;SDS011;69074;45.164;9.704;2024-03-23T14:55:46;65.0;;;30.2;;
79592;SDS011;69074;45.164;9.704;2024-03-23T14:58:11;65.0;;;30.2;;
79592;SDS011;69074;45.164;9.704;2024-03-23T15:00:36;65.0;;;30.2;;
79592;SDS011;69074;45.164;9.704;2024-03-23T15:03:01;59.3;;;36.9;;
79592;SDS011;69074;45.164;9.704;2024-03-23T15:05:26;59.3;;;36.9;;
79592;SDS011;69074;45.164;9.704;2024-03-23T15:07:51;59.3;;;36.9;;
79592;SDS011;69074;45.164;9.704;2024-03-23T15:10:16;59.3;;;36.9;;
79592;SDS011;69074;45.164;9.704;2024-03-23T15:12:41;59.3;;;36.9;;
79592;SDS011;69074;45.164;9.704;2024-03-23T15:15:06;59.3;;;36.9;;
79592;SDS011;69074;45.164;9.704;2024-03-23T15:17:31;47.2;;;29.9;;
79592;SDS011;69074;45.164;9.704;2024-03-23T15:19:56;47.2;;;29.9;;
79592;SDS011;69074;45.164;9.704;2024-03-23T15:22:21;47.2;;;29.9;;
79592;SDS011;69074;45.164;9.704;2024-03-23T15:24:46;47.2;;;29.9;;
79592;SDS011;69074;45.164;9.704;2024-03-23T15:27:11;47.2;;;29.9;;